sensor_id;sensor_type;location;lat;lon;timestamp;P1;durP1;ratioP1;P2;durP2;ratioP2
20287;SDS011;10303;51.960;8.372;2024-01-07T00:02:21;6.50;;;3.67;;
20287;SDS011;10303;51.960;8.372;2024-01-07T00:04:47;4.40;;;3.00;;
20287;SDS011;10303;51.960;8.372;2024-01-07T00:07:13;6.03;;;3.87;;
20287;SDS011;10303;51.960;8.372;2024-01-07T00:09:39;5.33;;;4.17;;
20287;SDS011;10303;51.960;8.372;2024-01-07T00:12:05;5.03;;;3.47;;
20287;SDS011;10303;51.960;8.372;2024-01-07T00:14:31;4.63;;;3.73;;
20287;SDS011;10303;51.960;8.372;2024-01-07T00:16:57;4.60;;;3.67;;
20287;SDS011;10303;51.960;8.372;2024-01-07T00:19:23;4.67;;;3.63;;
20287;SDS011;10303;51.960;8.372;2024-01-07T00:21:49;6.67;;;4.43;;
20287;SDS011;10303;51.960;8.372;2024-01-07T00:24:15;7.03;;;4.27;;
20287;SDS011;10303;51.960;8.372;2024-01-07T00:26:41;6.97;;;4.37;;
20287;SDS011;10303;51.960;8.372;2024-01-07T00:29:07;6.73;;;4.07;;
20287;SDS011;10303;51.960;8.372;2024-01-07T00:31:33;4.93;;;4.03;;
20287;SDS011;10303;51.960;8.372;2024-01-07T00:33:59;5.37;;;3.57;;
20287;SDS011;10303;51.960;8.372;2024-01-07T00:36:25;4.97;;;3.50;;
20287;SDS011;10303;51.960;8.372;2024-01-07T00:38:51;7.80;;;3.87;;
20287;SDS011;10303;51.960;8.372;2024-01-07T00:41:17;4.87;;;4.37;;
20287;SDS011;10303;51.960;8.372;2024-01-07T00:43:43;7.07;;;4.00;;
20287;SDS011;10303;51.960;8.372;2024-01-07T00:46:09;6.40;;;4.40;;
20287;SDS011;10303;51.960;8.372;2024-01-07T00:48:35;5.70;;;3.87;;
20287;SDS011;10303;51.960;8.372;2024-01-07T00:51:00;4.93;;;3.70;;
20287;SDS011;10303;51.960;8.372;2024-01-07T00:53:26;4.27;;;3.63;;
20287;SDS011;10303;51.960;8.372;2024-01-07T00:55:52;5.20;;;3.90;;
20287;SDS011;10303;51.960;8.372;2024-01-07T00:58:18;5.47;;;4.23;;
20287;SDS011;10303;51.960;8.372;2024-01-07T01:00:44;6.87;;;4.57;;
20287;SDS011;10303;51.960;8.372;2024-01-07T01:03:10;5.43;;;4.03;;
20287;SDS011;10303;51.960;8.372;2024-01-07T01:05:36;7.00;;;3.87;;
20287;SDS011;10303;51.960;8.372;2024-01-07T01:08:02;6.17;;;4.13;;
20287;SDS011;10303;51.960;8.372;2024-01-07T01:10:28;4.60;;;3.50;;
20287;SDS011;10303;51.960;8.372;2024-01-07T01:12:54;5.10;;;4.00;;
20287;SDS011;10303;51.960;8.372;2024-01-07T01:15:20;4.90;;;3.53;;
20287;SDS011;10303;51.960;8.372;2024-01-07T01:17:46;3.90;;;3.47;;
20287;SDS011;10303;51.960;8.372;2024-01-07T01:20:12;6.23;;;4.30;;
20287;SDS011;10303;51.960;8.372;2024-01-07T01:22:39;6.77;;;3.60;;
20287;SDS011;10303;51.960;8.372;2024-01-07T01:25:05;6.10;;;4.03;;
20287;SDS011;10303;51.960;8.372;2024-01-07T01:27:31;5.43;;;4.23;;
20287;SDS011;10303;51.960;8.372;2024-01-07T01:29:58;5.83;;;3.50;;
20287;SDS011;10303;51.960;8.372;2024-01-07T01:32:23;6.80;;;3.47;;
20287;SDS011;10303;51.960;8.372;2024-01-07T01:34:49;4.00;;;3.17;;
20287;SDS011;10303;51.960;8.372;2024-01-07T01:37:15;7.00;;;4.03;;
20287;SDS011;10303;51.960;8.372;2024-01-07T01:39:41;4.50;;;3.50;;
20287;SDS011;10303;51.960;8.372;2024-01-07T01:42:07;6.93;;;4.50;;
20287;SDS011;10303;51.960;8.372;2024-01-07T01:44:33;5.07;;;3.67;;
20287;SDS011;10303;51.960;8.372;2024-01-07T01:46:59;6.70;;;4.20;;
20287;SDS011;10303;51.960;8.372;2024-01-07T01:49:27;5.57;;;3.80;;
20287;SDS011;10303;51.960;8.372;2024-01-07T01:51:53;4.43;;;3.40;;
20287;SDS011;10303;51.960;8.372;2024-01-07T01:54:19;5.10;;;3.30;;
20287;SDS011;10303;51.960;8.372;2024-01-07T01:56:47;5.77;;;3.97;;
20287;SDS011;10303;51.960;8.372;2024-01-07T01:59:14;4.93;;;3.80;;
20287;SDS011;10303;51.960;8.372;2024-01-07T02:01:41;5.30;;;3.87;;
20287;SDS011;10303;51.960;8.372;2024-01-07T02:04:08;4.17;;;3.50;;
20287;SDS011;10303;51.960;8.372;2024-01-07T02:06:34;3.57;;;3.10;;
20287;SDS011;10303;51.960;8.372;2024-01-07T02:09:01;3.83;;;3.47;;
20287;SDS011;10303;51.960;8.372;2024-01-07T02:11:27;5.70;;;3.87;;
20287;SDS011;10303;51.960;8.372;2024-01-07T02:13:53;6.03;;;3.93;;
20287;SDS011;10303;51.960;8.372;2024-01-07T02:16:19;5.67;;;3.60;;
20287;SDS011;10303;51.960;8.372;2024-01-07T02:18:45;3.87;;;2.87;;
20287;SDS011;10303;51.960;8.372;2024-01-07T02:21:14;3.43;;;3.10;;
20287;SDS011;10303;51.960;8.372;2024-01-07T02:23:41;5.47;;;3.33;;
20287;SDS011;10303;51.960;8.372;2024-01-07T02:26:07;3.50;;;3.20;;
20287;SDS011;10303;51.960;8.372;2024-01-07T02:28:33;3.10;;;2.80;;
20287;SDS011;10303;51.960;8.372;2024-01-07T02:30:59;4.40;;;3.30;;
20287;SDS011;10303;51.960;8.372;2024-01-07T02:33:25;5.63;;;3.37;;
20287;SDS011;10303;51.960;8.372;2024-01-07T02:35:51;6.43;;;3.37;;
20287;SDS011;10303;51.960;8.372;2024-01-07T02:38:17;5.47;;;2.80;;
20287;SDS011;10303;51.960;8.372;2024-01-07T02:40:43;4.47;;;3.43;;
20287;SDS011;10303;51.960;8.372;2024-01-07T02:43:09;6.93;;;4.17;;
20287;SDS011;10303;51.960;8.372;2024-01-07T02:45:35;5.83;;;3.30;;
20287;SDS011;10303;51.960;8.372;2024-01-07T02:48:01;4.87;;;3.27;;
20287;SDS011;10303;51.960;8.372;2024-01-07T02:50:26;6.20;;;4.57;;
20287;SDS011;10303;51.960;8.372;2024-01-07T02:52:52;5.93;;;3.50;;
20287;SDS011;10303;51.960;8.372;2024-01-07T02:55:18;5.27;;;3.20;;
20287;SDS011;10303;51.960;8.372;2024-01-07T02:57:44;5.93;;;3.53;;
20287;SDS011;10303;51.960;8.372;2024-01-07T03:00:10;3.83;;;2.90;;
20287;SDS011;10303;51.960;8.372;2024-01-07T03:02:36;5.30;;;3.90;;
20287;SDS011;10303;51.960;8.372;2024-01-07T03:05:02;6.97;;;3.70;;
20287;SDS011;10303;51.960;8.372;2024-01-07T03:07:28;6.70;;;4.13;;
20287;SDS011;10303;51.960;8.372;2024-01-07T03:09:54;4.70;;;3.43;;
20287;SDS011;10303;51.960;8.372;2024-01-07T03:12:20;6.90;;;3.97;;
20287;SDS011;10303;51.960;8.372;2024-01-07T03:14:46;5.80;;;4.00;;
20287;SDS011;10303;51.960;8.372;2024-01-07T03:17:12;4.90;;;3.77;;
20287;SDS011;10303;51.960;8.372;2024-01-07T03:19:40;5.87;;;4.20;;
20287;SDS011;10303;51.960;8.372;2024-01-07T03:22:06;5.70;;;4.00;;
20287;SDS011;10303;51.960;8.372;2024-01-07T03:24:33;4.70;;;3.60;;
20287;SDS011;10303;51.960;8.372;2024-01-07T03:26:59;7.17;;;3.93;;
20287;SDS011;10303;51.960;8.372;2024-01-07T03:29:25;7.53;;;3.83;;
20287;SDS011;10303;51.960;8.372;2024-01-07T03:31:51;8.13;;;4.23;;
20287;SDS011;10303;51.960;8.372;2024-01-07T03:34:18;7.43;;;4.40;;
20287;SDS011;10303;51.960;8.372;2024-01-07T03:36:45;7.77;;;4.23;;
20287;SDS011;10303;51.960;8.372;2024-01-07T03:39:10;6.90;;;3.70;;
20287;SDS011;10303;51.960;8.372;2024-01-07T03:41:36;5.43;;;4.07;;
20287;SDS011;10303;51.960;8.372;2024-01-07T03:44:02;3.00;;;2.70;;
20287;SDS011;10303;51.960;8.372;2024-01-07T03:46:28;3.97;;;3.03;;
20287;SDS011;10303;51.960;8.372;2024-01-07T03:48:54;5.63;;;4.07;;
20287;SDS011;10303;51.960;8.372;2024-01-07T03:51:20;4.63;;;3.20;;
20287;SDS011;10303;51.960;8.372;2024-01-07T03:53:46;5.90;;;3.97;;
20287;SDS011;10303;51.960;8.372;2024-01-07T03:56:12;6.63;;;3.50;;
20287;SDS011;10303;51.960;8.372;2024-01-07T03:58:38;7.53;;;4.47;;
20287;SDS011;10303;51.960;8.372;2024-01-07T04:01:04;4.20;;;2.73;;
20287;SDS011;10303;51.960;8.372;2024-01-07T04:03:30;8.97;;;3.90;;
20287;SDS011;10303;51.960;8.372;2024-01-07T04:05:56;5.27;;;3.63;;
20287;SDS011;10303;51.960;8.372;2024-01-07T04:08:21;5.70;;;3.90;;
20287;SDS011;10303;51.960;8.372;2024-01-07T04:10:47;4.57;;;3.27;;
20287;SDS011;10303;51.960;8.372;2024-01-07T04:13:14;3.80;;;3.43;;
20287;SDS011;10303;51.960;8.372;2024-01-07T04:15:40;5.77;;;3.33;;
20287;SDS011;10303;51.960;8.372;2024-01-07T04:18:06;5.10;;;3.63;;
20287;SDS011;10303;51.960;8.372;2024-01-07T04:20:31;4.17;;;3.27;;
20287;SDS011;10303;51.960;8.372;2024-01-07T04:22:57;3.33;;;2.70;;
20287;SDS011;10303;51.960;8.372;2024-01-07T04:25:23;6.50;;;3.10;;
20287;SDS011;10303;51.960;8.372;2024-01-07T04:27:49;5.10;;;3.33;;
20287;SDS011;10303;51.960;8.372;2024-01-07T04:30:15;5.43;;;3.43;;
20287;SDS011;10303;51.960;8.372;2024-01-07T04:32:41;5.50;;;3.30;;
20287;SDS011;10303;51.960;8.372;2024-01-07T04:35:07;8.50;;;3.27;;
20287;SDS011;10303;51.960;8.372;2024-01-07T04:37:35;3.77;;;2.83;;
20287;SDS011;10303;51.960;8.372;2024-01-07T04:40:02;3.10;;;2.80;;
20287;SDS011;10303;51.960;8.372;2024-01-07T04:42:28;5.03;;;3.03;;
20287;SDS011;10303;51.960;8.372;2024-01-07T04:44:54;4.17;;;3.80;;
20287;SDS011;10303;51.960;8.372;2024-01-07T04:47:29;3.87;;;2.77;;
20287;SDS011;10303;51.960;8.372;2024-01-07T04:49:59;2.27;;;1.87;;
20287;SDS011;10303;51.960;8.372;2024-01-07T04:52:26;3.63;;;2.80;;
20287;SDS011;10303;51.960;8.372;2024-01-07T04:54:52;4.07;;;2.73;;
20287;SDS011;10303;51.960;8.372;2024-01-07T04:57:19;3.53;;;2.90;;
20287;SDS011;10303;51.960;8.372;2024-01-07T04:59:47;3.50;;;2.67;;
20287;SDS011;10303;51.960;8.372;2024-01-07T05:02:14;4.53;;;3.13;;
20287;SDS011;10303;51.960;8.372;2024-01-07T05:04:41;2.93;;;2.20;;
20287;SDS011;10303;51.960;8.372;2024-01-07T05:07:07;3.23;;;2.00;;
20287;SDS011;10303;51.960;8.372;2024-01-07T05:09:33;3.73;;;2.63;;
20287;SDS011;10303;51.960;8.372;2024-01-07T05:12:00;2.33;;;2.07;;
20287;SDS011;10303;51.960;8.372;2024-01-07T05:14:26;4.23;;;2.60;;
20287;SDS011;10303;51.960;8.372;2024-01-07T05:16:53;3.50;;;2.43;;
20287;SDS011;10303;51.960;8.372;2024-01-07T05:19:19;3.50;;;2.37;;
20287;SDS011;10303;51.960;8.372;2024-01-07T05:21:45;3.23;;;2.93;;
20287;SDS011;10303;51.960;8.372;2024-01-07T05:24:11;3.73;;;2.97;;
20287;SDS011;10303;51.960;8.372;2024-01-07T05:26:38;3.97;;;2.50;;
20287;SDS011;10303;51.960;8.372;2024-01-07T05:29:05;4.50;;;2.77;;
20287;SDS011;10303;51.960;8.372;2024-01-07T05:31:31;4.63;;;2.90;;
20287;SDS011;10303;51.960;8.372;2024-01-07T05:33:57;5.07;;;3.60;;
20287;SDS011;10303;51.960;8.372;2024-01-07T05:36:23;4.27;;;2.87;;
20287;SDS011;10303;51.960;8.372;2024-01-07T05:38:48;4.63;;;2.90;;
20287;SDS011;10303;51.960;8.372;2024-01-07T05:41:14;4.40;;;2.30;;
20287;SDS011;10303;51.960;8.372;2024-01-07T05:43:40;4.67;;;3.27;;
20287;SDS011;10303;51.960;8.372;2024-01-07T05:46:06;5.33;;;3.23;;
20287;SDS011;10303;51.960;8.372;2024-01-07T05:48:41;4.10;;;3.03;;
20287;SDS011;10303;51.960;8.372;2024-01-07T05:51:09;3.13;;;2.80;;
20287;SDS011;10303;51.960;8.372;2024-01-07T05:53:36;4.90;;;3.20;;
20287;SDS011;10303;51.960;8.372;2024-01-07T05:56:02;5.43;;;3.17;;
20287;SDS011;10303;51.960;8.372;2024-01-07T05:58:29;4.47;;;2.43;;
20287;SDS011;10303;51.960;8.372;2024-01-07T06:00:55;5.07;;;3.10;;
20287;SDS011;10303;51.960;8.372;2024-01-07T06:03:21;5.53;;;3.27;;
20287;SDS011;10303;51.960;8.372;2024-01-07T06:05:47;3.57;;;2.73;;
20287;SDS011;10303;51.960;8.372;2024-01-07T06:08:13;3.77;;;2.97;;
20287;SDS011;10303;51.960;8.372;2024-01-07T06:10:39;3.97;;;2.30;;
20287;SDS011;10303;51.960;8.372;2024-01-07T06:13:06;3.93;;;2.40;;
20287;SDS011;10303;51.960;8.372;2024-01-07T06:15:32;3.53;;;2.30;;
20287;SDS011;10303;51.960;8.372;2024-01-07T06:17:58;3.83;;;2.97;;
20287;SDS011;10303;51.960;8.372;2024-01-07T06:20:23;2.93;;;2.40;;
20287;SDS011;10303;51.960;8.372;2024-01-07T06:22:49;3.80;;;2.87;;
20287;SDS011;10303;51.960;8.372;2024-01-07T06:25:16;3.57;;;2.93;;
20287;SDS011;10303;51.960;8.372;2024-01-07T06:27:42;3.03;;;2.43;;
20287;SDS011;10303;51.960;8.372;2024-01-07T06:30:08;2.70;;;2.33;;
20287;SDS011;10303;51.960;8.372;2024-01-07T06:32:34;4.73;;;2.43;;
20287;SDS011;10303;51.960;8.372;2024-01-07T06:35:00;3.30;;;2.53;;
20287;SDS011;10303;51.960;8.372;2024-01-07T06:37:28;4.17;;;2.40;;
20287;SDS011;10303;51.960;8.372;2024-01-07T06:39:58;4.87;;;2.23;;
20287;SDS011;10303;51.960;8.372;2024-01-07T06:42:24;3.00;;;2.13;;
20287;SDS011;10303;51.960;8.372;2024-01-07T06:44:50;1.90;;;1.67;;
20287;SDS011;10303;51.960;8.372;2024-01-07T06:47:16;5.10;;;3.10;;
20287;SDS011;10303;51.960;8.372;2024-01-07T06:49:41;3.63;;;2.37;;
20287;SDS011;10303;51.960;8.372;2024-01-07T06:52:07;3.10;;;2.67;;
20287;SDS011;10303;51.960;8.372;2024-01-07T06:54:33;4.40;;;2.77;;
20287;SDS011;10303;51.960;8.372;2024-01-07T06:56:59;3.67;;;2.23;;
20287;SDS011;10303;51.960;8.372;2024-01-07T06:59:25;2.60;;;2.30;;
20287;SDS011;10303;51.960;8.372;2024-01-07T07:01:51;2.63;;;2.13;;
20287;SDS011;10303;51.960;8.372;2024-01-07T07:04:18;3.23;;;2.60;;
20287;SDS011;10303;51.960;8.372;2024-01-07T07:06:44;2.97;;;2.67;;
20287;SDS011;10303;51.960;8.372;2024-01-07T07:09:10;2.67;;;2.20;;
20287;SDS011;10303;51.960;8.372;2024-01-07T07:11:37;3.47;;;2.43;;
20287;SDS011;10303;51.960;8.372;2024-01-07T07:14:04;2.63;;;2.37;;
20287;SDS011;10303;51.960;8.372;2024-01-07T07:16:29;2.63;;;2.13;;
20287;SDS011;10303;51.960;8.372;2024-01-07T07:18:55;3.77;;;2.60;;
20287;SDS011;10303;51.960;8.372;2024-01-07T07:21:21;3.03;;;2.10;;
20287;SDS011;10303;51.960;8.372;2024-01-07T07:23:48;3.80;;;2.37;;
20287;SDS011;10303;51.960;8.372;2024-01-07T07:26:14;3.37;;;2.17;;
20287;SDS011;10303;51.960;8.372;2024-01-07T07:28:40;2.20;;;1.60;;
20287;SDS011;10303;51.960;8.372;2024-01-07T07:31:05;2.40;;;2.20;;
20287;SDS011;10303;51.960;8.372;2024-01-07T07:33:31;2.37;;;2.17;;
20287;SDS011;10303;51.960;8.372;2024-01-07T07:35:57;2.23;;;1.80;;
20287;SDS011;10303;51.960;8.372;2024-01-07T07:38:23;2.60;;;1.70;;
20287;SDS011;10303;51.960;8.372;2024-01-07T07:40:49;3.07;;;1.70;;
20287;SDS011;10303;51.960;8.372;2024-01-07T07:43:21;2.00;;;1.10;;
20287;SDS011;10303;51.960;8.372;2024-01-07T07:45:47;2.80;;;1.30;;
20287;SDS011;10303;51.960;8.372;2024-01-07T07:48:13;1.50;;;1.20;;
20287;SDS011;10303;51.960;8.372;2024-01-07T07:50:39;1.63;;;1.53;;
20287;SDS011;10303;51.960;8.372;2024-01-07T07:53:05;1.20;;;1.10;;
20287;SDS011;10303;51.960;8.372;2024-01-07T07:55:32;1.30;;;1.20;;
20287;SDS011;10303;51.960;8.372;2024-01-07T07:57:57;1.60;;;1.40;;
20287;SDS011;10303;51.960;8.372;2024-01-07T08:00:23;2.03;;;1.57;;
20287;SDS011;10303;51.960;8.372;2024-01-07T08:02:49;2.33;;;1.57;;
20287;SDS011;10303;51.960;8.372;2024-01-07T08:05:15;2.90;;;1.53;;
20287;SDS011;10303;51.960;8.372;2024-01-07T08:07:41;1.00;;;0.90;;
20287;SDS011;10303;51.960;8.372;2024-01-07T08:10:08;1.23;;;1.10;;
20287;SDS011;10303;51.960;8.372;2024-01-07T08:12:34;2.13;;;1.73;;
20287;SDS011;10303;51.960;8.372;2024-01-07T08:15:00;3.07;;;1.60;;
20287;SDS011;10303;51.960;8.372;2024-01-07T08:17:27;1.67;;;1.50;;
20287;SDS011;10303;51.960;8.372;2024-01-07T08:19:53;1.40;;;1.30;;
20287;SDS011;10303;51.960;8.372;2024-01-07T08:22:19;2.77;;;1.23;;
20287;SDS011;10303;51.960;8.372;2024-01-07T08:24:45;1.30;;;0.87;;
20287;SDS011;10303;51.960;8.372;2024-01-07T08:27:11;1.50;;;1.40;;
20287;SDS011;10303;51.960;8.372;2024-01-07T08:29:37;1.30;;;1.20;;
20287;SDS011;10303;51.960;8.372;2024-01-07T08:32:03;1.20;;;1.07;;
20287;SDS011;10303;51.960;8.372;2024-01-07T08:34:29;1.67;;;1.27;;
20287;SDS011;10303;51.960;8.372;2024-01-07T08:36:55;1.63;;;1.17;;
20287;SDS011;10303;51.960;8.372;2024-01-07T08:39:21;1.70;;;1.00;;
20287;SDS011;10303;51.960;8.372;2024-01-07T08:41:47;2.20;;;1.30;;
20287;SDS011;10303;51.960;8.372;2024-01-07T08:44:13;1.43;;;1.30;;
20287;SDS011;10303;51.960;8.372;2024-01-07T08:46:39;3.77;;;1.57;;
20287;SDS011;10303;51.960;8.372;2024-01-07T08:49:05;1.80;;;1.47;;
20287;SDS011;10303;51.960;8.372;2024-01-07T08:51:31;2.37;;;1.03;;
20287;SDS011;10303;51.960;8.372;2024-01-07T08:53:57;1.23;;;1.13;;
20287;SDS011;10303;51.960;8.372;2024-01-07T08:56:24;1.77;;;1.53;;
20287;SDS011;10303;51.960;8.372;2024-01-07T08:58:50;1.30;;;1.20;;
20287;SDS011;10303;51.960;8.372;2024-01-07T09:01:17;1.70;;;1.20;;
20287;SDS011;10303;51.960;8.372;2024-01-07T09:03:43;1.43;;;1.30;;
20287;SDS011;10303;51.960;8.372;2024-01-07T09:06:09;1.37;;;1.00;;
20287;SDS011;10303;51.960;8.372;2024-01-07T09:08:35;1.53;;;1.10;;
20287;SDS011;10303;51.960;8.372;2024-01-07T09:11:01;1.90;;;1.10;;
20287;SDS011;10303;51.960;8.372;2024-01-07T09:13:29;1.10;;;1.00;;
20287;SDS011;10303;51.960;8.372;2024-01-07T09:15:55;1.83;;;1.00;;
20287;SDS011;10303;51.960;8.372;2024-01-07T09:18:21;1.30;;;1.10;;
20287;SDS011;10303;51.960;8.372;2024-01-07T09:20:47;1.03;;;0.70;;
20287;SDS011;10303;51.960;8.372;2024-01-07T09:23:13;1.73;;;1.00;;
20287;SDS011;10303;51.960;8.372;2024-01-07T09:25:40;1.27;;;1.10;;
20287;SDS011;10303;51.960;8.372;2024-01-07T09:28:07;1.20;;;1.03;;
20287;SDS011;10303;51.960;8.372;2024-01-07T09:30:33;2.23;;;1.40;;
20287;SDS011;10303;51.960;8.372;2024-01-07T09:32:59;1.20;;;1.10;;
20287;SDS011;10303;51.960;8.372;2024-01-07T09:35:24;0.83;;;0.83;;
20287;SDS011;10303;51.960;8.372;2024-01-07T09:37:50;2.17;;;0.90;;
20287;SDS011;10303;51.960;8.372;2024-01-07T09:40:17;1.30;;;1.10;;
20287;SDS011;10303;51.960;8.372;2024-01-07T09:43:04;0.97;;;0.90;;
20287;SDS011;10303;51.960;8.372;2024-01-07T09:45:30;1.30;;;1.20;;
20287;SDS011;10303;51.960;8.372;2024-01-07T09:47:56;1.43;;;1.00;;
20287;SDS011;10303;51.960;8.372;2024-01-07T09:50:22;3.00;;;0.80;;
20287;SDS011;10303;51.960;8.372;2024-01-07T09:52:48;1.27;;;1.00;;
20287;SDS011;10303;51.960;8.372;2024-01-07T09:55:27;1.07;;;0.97;;
20287;SDS011;10303;51.960;8.372;2024-01-07T09:57:59;1.63;;;1.03;;
20287;SDS011;10303;51.960;8.372;2024-01-07T10:00:26;2.37;;;1.00;;
20287;SDS011;10303;51.960;8.372;2024-01-07T10:02:54;0.97;;;0.77;;
20287;SDS011;10303;51.960;8.372;2024-01-07T10:05:20;2.40;;;0.97;;
20287;SDS011;10303;51.960;8.372;2024-01-07T10:07:46;1.10;;;1.00;;
20287;SDS011;10303;51.960;8.372;2024-01-07T10:10:16;2.67;;;0.80;;
20287;SDS011;10303;51.960;8.372;2024-01-07T10:12:45;3.17;;;1.30;;
20287;SDS011;10303;51.960;8.372;2024-01-07T10:15:12;1.10;;;0.90;;
20287;SDS011;10303;51.960;8.372;2024-01-07T10:17:42;1.73;;;1.00;;
20287;SDS011;10303;51.960;8.372;2024-01-07T10:20:08;0.70;;;0.57;;
20287;SDS011;10303;51.960;8.372;2024-01-07T10:22:36;1.50;;;1.03;;
20287;SDS011;10303;51.960;8.372;2024-01-07T10:25:05;0.83;;;0.80;;
20287;SDS011;10303;51.960;8.372;2024-01-07T10:27:35;0.80;;;0.80;;
20287;SDS011;10303;51.960;8.372;2024-01-07T10:30:02;1.10;;;0.70;;
20287;SDS011;10303;51.960;8.372;2024-01-07T10:32:28;1.00;;;0.93;;
20287;SDS011;10303;51.960;8.372;2024-01-07T10:34:57;1.77;;;1.20;;
20287;SDS011;10303;51.960;8.372;2024-01-07T10:37:31;2.20;;;1.03;;
20287;SDS011;10303;51.960;8.372;2024-01-07T10:39:58;1.53;;;1.10;;
20287;SDS011;10303;51.960;8.372;2024-01-07T10:42:32;0.93;;;0.80;;
20287;SDS011;10303;51.960;8.372;2024-01-07T10:44:59;21.43;;;7.63;;
20287;SDS011;10303;51.960;8.372;2024-01-07T10:47:29;14.57;;;5.37;;
20287;SDS011;10303;51.960;8.372;2024-01-07T10:49:57;4.63;;;2.73;;
20287;SDS011;10303;51.960;8.372;2024-01-07T10:52:28;7.20;;;1.90;;
20287;SDS011;10303;51.960;8.372;2024-01-07T10:54:57;3.30;;;1.70;;
20287;SDS011;10303;51.960;8.372;2024-01-07T10:57:34;4.73;;;1.53;;
20287;SDS011;10303;51.960;8.372;2024-01-07T11:00:13;2.20;;;1.00;;
20287;SDS011;10303;51.960;8.372;2024-01-07T11:02:51;2.30;;;1.03;;
20287;SDS011;10303;51.960;8.372;2024-01-07T11:08:27;0.83;;;0.80;;
20287;SDS011;10303;51.960;8.372;2024-01-07T11:11:14;0.70;;;0.70;;
20287;SDS011;10303;51.960;8.372;2024-01-07T11:13:46;4.47;;;0.87;;
20287;SDS011;10303;51.960;8.372;2024-01-07T11:16:12;0.70;;;0.70;;
20287;SDS011;10303;51.960;8.372;2024-01-07T11:18:49;0.70;;;0.70;;
20287;SDS011;10303;51.960;8.372;2024-01-07T11:21:22;3.03;;;1.03;;
20287;SDS011;10303;51.960;8.372;2024-01-07T11:23:53;1.13;;;0.80;;
20287;SDS011;10303;51.960;8.372;2024-01-07T11:26:20;1.03;;;0.60;;
20287;SDS011;10303;51.960;8.372;2024-01-07T11:34:04;2.83;;;0.87;;
20287;SDS011;10303;51.960;8.372;2024-01-07T11:36:31;2.80;;;1.10;;
20287;SDS011;10303;51.960;8.372;2024-01-07T11:39:01;1.47;;;0.80;;
20287;SDS011;10303;51.960;8.372;2024-01-07T11:41:28;0.87;;;0.77;;
20287;SDS011;10303;51.960;8.372;2024-01-07T11:43:59;1.00;;;0.57;;
20287;SDS011;10303;51.960;8.372;2024-01-07T11:46:26;1.37;;;1.23;;
20287;SDS011;10303;51.960;8.372;2024-01-07T11:48:59;1.90;;;0.97;;
20287;SDS011;10303;51.960;8.372;2024-01-07T11:51:27;4.40;;;0.97;;
20287;SDS011;10303;51.960;8.372;2024-01-07T11:53:56;1.33;;;1.10;;
20287;SDS011;10303;51.960;8.372;2024-01-07T11:56:24;1.40;;;1.00;;
20287;SDS011;10303;51.960;8.372;2024-01-07T11:58:51;1.67;;;1.10;;
20287;SDS011;10303;51.960;8.372;2024-01-07T12:01:18;1.17;;;0.90;;
20287;SDS011;10303;51.960;8.372;2024-01-07T12:03:45;1.17;;;1.07;;
20287;SDS011;10303;51.960;8.372;2024-01-07T12:06:12;1.97;;;1.20;;
20287;SDS011;10303;51.960;8.372;2024-01-07T12:08:42;1.50;;;1.07;;
20287;SDS011;10303;51.960;8.372;2024-01-07T12:11:13;2.03;;;1.27;;
20287;SDS011;10303;51.960;8.372;2024-01-07T12:13:40;4.50;;;1.10;;
20287;SDS011;10303;51.960;8.372;2024-01-07T12:16:08;1.63;;;1.27;;
20287;SDS011;10303;51.960;8.372;2024-01-07T12:18:36;1.20;;;1.10;;
20287;SDS011;10303;51.960;8.372;2024-01-07T12:21:04;3.03;;;1.30;;
20287;SDS011;10303;51.960;8.372;2024-01-07T12:23:34;1.60;;;1.23;;
20287;SDS011;10303;51.960;8.372;2024-01-07T12:26:08;1.73;;;1.00;;
20287;SDS011;10303;51.960;8.372;2024-01-07T12:28:36;1.83;;;0.90;;
20287;SDS011;10303;51.960;8.372;2024-01-07T12:31:07;3.37;;;1.00;;
20287;SDS011;10303;51.960;8.372;2024-01-07T12:33:36;1.70;;;1.13;;
20287;SDS011;10303;51.960;8.372;2024-01-07T12:36:05;1.77;;;1.10;;
20287;SDS011;10303;51.960;8.372;2024-01-07T12:38:32;2.07;;;1.00;;
20287;SDS011;10303;51.960;8.372;2024-01-07T12:41:02;1.70;;;1.03;;
20287;SDS011;10303;51.960;8.372;2024-01-07T12:43:28;1.30;;;1.20;;
20287;SDS011;10303;51.960;8.372;2024-01-07T12:45:54;2.17;;;1.30;;
20287;SDS011;10303;51.960;8.372;2024-01-07T12:48:22;0.93;;;0.87;;
20287;SDS011;10303;51.960;8.372;2024-01-07T12:50:48;1.63;;;1.10;;
20287;SDS011;10303;51.960;8.372;2024-01-07T12:53:14;1.50;;;1.40;;
20287;SDS011;10303;51.960;8.372;2024-01-07T12:55:40;1.37;;;1.13;;
20287;SDS011;10303;51.960;8.372;2024-01-07T12:58:06;2.37;;;1.20;;
20287;SDS011;10303;51.960;8.372;2024-01-07T13:00:33;0.97;;;0.87;;
20287;SDS011;10303;51.960;8.372;2024-01-07T13:03:00;1.43;;;1.30;;
20287;SDS011;10303;51.960;8.372;2024-01-07T13:05:26;1.90;;;0.90;;
20287;SDS011;10303;51.960;8.372;2024-01-07T13:07:53;1.27;;;1.00;;
20287;SDS011;10303;51.960;8.372;2024-01-07T13:10:19;0.80;;;0.80;;
20287;SDS011;10303;51.960;8.372;2024-01-07T13:12:46;1.23;;;1.03;;
20287;SDS011;10303;51.960;8.372;2024-01-07T13:15:12;1.10;;;1.00;;
20287;SDS011;10303;51.960;8.372;2024-01-07T13:17:38;1.10;;;0.87;;
20287;SDS011;10303;51.960;8.372;2024-01-07T13:20:04;4.57;;;1.70;;
20287;SDS011;10303;51.960;8.372;2024-01-07T13:22:32;2.77;;;1.20;;
20287;SDS011;10303;51.960;8.372;2024-01-07T13:24:58;1.87;;;1.23;;
20287;SDS011;10303;51.960;8.372;2024-01-07T13:27:24;1.00;;;0.93;;
20287;SDS011;10303;51.960;8.372;2024-01-07T13:29:50;1.17;;;1.07;;
20287;SDS011;10303;51.960;8.372;2024-01-07T13:32:16;2.60;;;0.80;;
20287;SDS011;10303;51.960;8.372;2024-01-07T13:34:43;1.10;;;1.00;;
20287;SDS011;10303;51.960;8.372;2024-01-07T13:37:09;1.20;;;1.10;;
20287;SDS011;10303;51.960;8.372;2024-01-07T13:39:35;0.77;;;0.77;;
20287;SDS011;10303;51.960;8.372;2024-01-07T13:42:02;1.20;;;1.10;;
20287;SDS011;10303;51.960;8.372;2024-01-07T13:44:29;1.30;;;1.20;;
20287;SDS011;10303;51.960;8.372;2024-01-07T13:46:55;1.00;;;0.90;;
20287;SDS011;10303;51.960;8.372;2024-01-07T13:49:21;2.77;;;1.07;;
20287;SDS011;10303;51.960;8.372;2024-01-07T13:51:47;1.10;;;0.90;;
20287;SDS011;10303;51.960;8.372;2024-01-07T13:54:13;1.30;;;0.90;;
20287;SDS011;10303;51.960;8.372;2024-01-07T13:56:40;2.17;;;1.20;;
20287;SDS011;10303;51.960;8.372;2024-01-07T13:59:10;1.20;;;1.10;;
20287;SDS011;10303;51.960;8.372;2024-01-07T14:01:37;0.60;;;0.60;;
20287;SDS011;10303;51.960;8.372;2024-01-07T14:04:04;4.50;;;0.90;;
20287;SDS011;10303;51.960;8.372;2024-01-07T14:06:30;0.60;;;0.60;;
20287;SDS011;10303;51.960;8.372;2024-01-07T14:08:56;0.67;;;0.63;;
20287;SDS011;10303;51.960;8.372;2024-01-07T14:11:23;0.70;;;0.70;;
20287;SDS011;10303;51.960;8.372;2024-01-07T14:13:49;2.03;;;1.30;;
20287;SDS011;10303;51.960;8.372;2024-01-07T14:16:15;0.70;;;0.70;;
20287;SDS011;10303;51.960;8.372;2024-01-07T14:18:41;0.90;;;0.90;;
20287;SDS011;10303;51.960;8.372;2024-01-07T14:21:07;1.80;;;0.77;;
20287;SDS011;10303;51.960;8.372;2024-01-07T14:23:34;1.10;;;0.90;;
20287;SDS011;10303;51.960;8.372;2024-01-07T14:26:01;2.57;;;1.00;;
20287;SDS011;10303;51.960;8.372;2024-01-07T14:28:27;1.67;;;1.20;;
20287;SDS011;10303;51.960;8.372;2024-01-07T14:30:53;1.47;;;0.93;;
20287;SDS011;10303;51.960;8.372;2024-01-07T14:33:19;1.93;;;0.80;;
20287;SDS011;10303;51.960;8.372;2024-01-07T14:35:45;1.57;;;1.00;;
20287;SDS011;10303;51.960;8.372;2024-01-07T14:38:10;2.20;;;0.70;;
20287;SDS011;10303;51.960;8.372;2024-01-07T14:40:36;1.30;;;1.03;;
20287;SDS011;10303;51.960;8.372;2024-01-07T14:43:02;1.30;;;1.10;;
20287;SDS011;10303;51.960;8.372;2024-01-07T14:45:28;1.03;;;0.87;;
20287;SDS011;10303;51.960;8.372;2024-01-07T14:47:54;1.10;;;1.00;;
20287;SDS011;10303;51.960;8.372;2024-01-07T14:50:20;1.43;;;0.80;;
20287;SDS011;10303;51.960;8.372;2024-01-07T14:52:46;1.00;;;0.83;;
20287;SDS011;10303;51.960;8.372;2024-01-07T14:55:13;2.57;;;0.70;;